Terminal Aerodrome Forecast
Issued by NWS Twin Cities, MN

Home | Current Version | Previous Version | Text Only | Print | Product List | Glossary On
Versions: 1 2 3 4 5 6 7 8 9 10 11 12 13 14 15 16
007
FTUS43 KMPX 191120
TAFEAU
TAF
KEAU 191120Z 1912/2012 10004KT P6SM OVC025
     FM191600 13009KT P6SM SCT025 BKN040
     FM191900 14012KT P6SM SCT050
     FM200600 14012KT P6SM VCSH SCT030 BKN070=

USA.gov is the U.S. government's official web portal to all federal, state and local government web resources and services.